Time;durP1;ratioP1;P1;durP2;ratioP2;P2;SDS_P1;SDS_P2;PMS_P1;PMS_P2;Temp;Humidity;BMP_temperature;BMP_pressure;BME280_temperature;BME280_humidity;BME280_pressure;Samples;Min_cycle;Max_cycle;Signal;HPM_P1;HPM_P2
2022/02/15 00:00:50;;;;;;;;;;;6.20;99.90;;;;;;8397761;28;19933;-76
2022/02/15 00:04:51;;;;;;;;;;;6.20;99.90;;;;;;8416084;28;19967;-75
2022/02/15 00:08:53;;;;;;;;;;;6.20;99.90;;;;;;8413398;28;20287;-75
2022/02/15 00:12:55;;;;;;;;;;;6.20;99.90;;;;;;8410436;28;19932;-75
2022/02/15 00:16:57;;;;;;;;;;;6.20;99.90;;;;;;8406411;28;19975;-75
2022/02/15 00:21:00;;;;;;;;;;;6.20;99.90;;;;;;8389231;28;20523;-75
2022/02/15 00:25:02;;;;;;;;;;;6.20;99.90;;;;;;8400758;28;19924;-75
2022/02/15 00:29:04;;;;;;;;;;;6.20;99.90;;;;;;8402532;28;20339;-75
2022/02/15 00:33:05;;;;;;;;;;;6.20;99.90;;;;;;8391507;28;20043;-76
2022/02/15 00:37:07;;;;;;;;;;;6.20;99.90;;;;;;8411582;28;20396;-76
2022/02/15 00:41:09;;;;;;;;;;;6.20;99.90;;;;;;8409488;28;20237;-76
2022/02/15 00:45:11;;;;;;;;;;;6.20;99.90;;;;;;8405164;28;20352;-75
2022/02/15 00:49:12;;;;;;;;;;;6.10;99.90;;;;;;8408650;28;20376;-75
2022/02/15 00:53:14;;;;;;;;;;;6.10;99.90;;;;;;8411216;28;20265;-75
2022/02/15 00:57:16;;;;;;;;;;;6.00;99.90;;;;;;8408401;28;19925;-75
2022/02/15 01:01:17;;;;;;;;;;;6.00;99.90;;;;;;8409555;28;19925;-76
2022/02/15 01:05:19;;;;;;;;;;;6.00;99.90;;;;;;8406260;28;19932;-75
2022/02/15 01:09:21;;;;;;;;;;;6.00;99.90;;;;;;8387869;28;19925;-75
2022/02/15 01:13:22;;;;;;;;;;;5.90;99.90;;;;;;8395476;28;19935;-75
2022/02/15 01:17:24;;;;;;;;;;;5.90;99.90;;;;;;8394721;28;20343;-75
2022/02/15 01:21:25;;;;;;;;;;;5.90;99.90;;;;;;8412815;28;19925;-75
2022/02/15 01:25:27;;;;;;;;;;;5.90;99.90;;;;;;8385103;28;19924;-75
2022/02/15 01:29:29;;;;;;;;;;;6.00;99.90;;;;;;8414250;28;19928;-75
2022/02/15 01:33:31;;;;;;;;;;;6.00;99.90;;;;;;8413693;28;20038;-75
2022/02/15 01:37:33;;;;;;;;;;;6.00;99.90;;;;;;8408742;28;19925;-75
2022/02/15 01:41:34;;;;;;;;;;;6.00;99.90;;;;;;8410925;28;19960;-75
2022/02/15 01:45:36;;;;;;;;;;;5.90;99.90;;;;;;8408276;28;19939;-75
2022/02/15 01:49:38;;;;;;;;;;;5.90;99.90;;;;;;8408207;28;20217;-75
2022/02/15 01:53:40;;;;;;;;;;;5.90;99.90;;;;;;8404337;28;19951;-75
2022/02/15 01:57:42;;;;;;;;;;;5.90;99.90;;;;;;8409279;28;20398;-75
2022/02/15 02:01:44;;;;;;;;;;;5.90;99.90;;;;;;8394246;28;19924;-75
2022/02/15 02:05:48;;;;;;;;;;;5.90;99.90;;;;;;8412622;28;19925;-75
2022/02/15 02:09:50;;;;;;;;;;;5.90;99.90;;;;;;8392279;28;19928;-75
2022/02/15 02:13:51;;;;;;;;;;;5.80;99.90;;;;;;8402901;28;19925;-75
2022/02/15 02:17:53;;;;;;;;;;;5.70;99.90;;;;;;8386859;28;19963;-76
2022/02/15 02:21:55;;;;;;;;;;;5.70;99.90;;;;;;8411360;28;19931;-75
2022/02/15 02:25:57;;;;;;;;;;;5.80;99.90;;;;;;8407612;28;20376;-75
2022/02/15 02:29:59;;;;;;;;;;;5.80;99.90;;;;;;8417453;28;19924;-75
2022/02/15 02:34:01;;;;;;;;;;;5.80;99.90;;;;;;8405033;28;19924;-75
2022/02/15 02:38:02;;;;;;;;;;;5.80;99.90;;;;;;8413076;28;19931;-75
2022/02/15 02:42:04;;;;;;;;;;;5.80;99.90;;;;;;8394186;28;19975;-74
2022/02/15 02:46:06;;;;;;;;;;;5.70;99.90;;;;;;8406317;28;19975;-75
2022/02/15 02:50:07;;;;;;;;;;;5.70;99.90;;;;;;8393248;28;19924;-75
2022/02/15 02:54:09;;;;;;;;;;;5.70;99.90;;;;;;8413558;28;19935;-75
2022/02/15 02:58:11;;;;;;;;;;;5.70;99.90;;;;;;8405617;28;19932;-75
2022/02/15 03:02:12;;;;;;;;;;;5.70;99.90;;;;;;8406111;28;19935;-75
2022/02/15 03:06:15;;;;;;;;;;;5.60;99.90;;;;;;8405364;28;20371;-75
2022/02/15 03:10:16;;;;;;;;;;;5.60;99.90;;;;;;8403155;28;20399;-75
2022/02/15 03:14:18;;;;;;;;;;;5.60;99.90;;;;;;8408037;28;19935;-75
2022/02/15 03:18:20;;;;;;;;;;;5.50;99.90;;;;;;8412203;28;19947;-75
2022/02/15 03:22:22;;;;;;;;;;;5.50;99.90;;;;;;8403270;28;19928;-75
2022/02/15 03:26:24;;;;;;;;;;;5.50;99.90;;;;;;8406350;28;20330;-75
2022/02/15 03:30:25;;;;;;;;;;;5.50;99.90;;;;;;8413660;28;19924;-75
2022/02/15 03:34:29;;;;;;;;;;;5.50;99.90;;;;;;8406429;28;20448;-75
2022/02/15 03:38:30;;;;;;;;;;;5.50;99.90;;;;;;8417602;28;19936;-75
2022/02/15 03:46:54;;;;;;;;;;;5.60;99.90;;;;;;8420691;28;19973;-75
2022/02/15 03:50:56;;;;;;;;;;;5.70;99.90;;;;;;8412890;28;19931;-75
2022/02/15 03:54:57;;;;;;;;;;;5.70;99.90;;;;;;8412000;28;19932;-75
2022/02/15 03:59:03;;;;;;;;;;;5.70;99.90;;;;;;8395848;28;19923;-75
2022/02/15 04:03:07;;;;;;;;;;;5.80;99.90;;;;;;8410315;28;19932;-75
2022/02/15 04:07:09;;;;;;;;;;;5.90;99.90;;;;;;8395020;28;19924;-75
2022/02/15 04:11:12;;;;;;;;;;;5.90;99.90;;;;;;8414967;28;19925;-75
2022/02/15 04:15:14;;;;;;;;;;;5.90;99.90;;;;;;8406048;28;19924;-75
2022/02/15 04:19:17;;;;;;;;;;;6.00;99.90;;;;;;8418071;28;19978;-75
2022/02/15 04:23:19;;;;;;;;;;;6.00;99.90;;;;;;8408254;28;20656;-75
2022/02/15 04:27:21;;;;;;;;;;;6.00;99.90;;;;;;8391747;28;19928;-75
2022/02/15 04:31:22;;;;;;;;;;;6.00;99.90;;;;;;8399741;28;19932;-75
2022/02/15 04:35:24;;;;;;;;;;;6.00;99.90;;;;;;8396231;28;20342;-75
2022/02/15 04:39:25;;;;;;;;;;;6.00;99.90;;;;;;8388730;28;19928;-75
2022/02/15 04:43:27;;;;;;;;;;;6.00;99.90;;;;;;8408533;28;19931;-75
2022/02/15 04:47:29;;;;;;;;;;;6.00;99.90;;;;;;8409288;28;19947;-75
2022/02/15 04:51:31;;;;;;;;;;;6.10;99.90;;;;;;8414847;28;19928;-75
2022/02/15 04:55:32;;;;;;;;;;;6.10;99.90;;;;;;8415928;28;19924;-75
2022/02/15 04:59:34;;;;;;;;;;;6.10;99.90;;;;;;8413065;28;19924;-75
2022/02/15 05:03:36;;;;;;;;;;;6.20;99.90;;;;;;8397075;28;19924;-75
2022/02/15 05:07:37;;;;;;;;;;;6.20;99.90;;;;;;8411004;28;19931;-75
2022/02/15 05:11:39;;;;;;;;;;;6.20;99.90;;;;;;8402260;28;20303;-75
2022/02/15 05:15:41;;;;;;;;;;;6.20;99.90;;;;;;8387869;28;19931;-74
2022/02/15 05:19:43;;;;;;;;;;;6.20;99.90;;;;;;8405352;28;19924;-75
2022/02/15 05:23:45;;;;;;;;;;;6.20;99.90;;;;;;8394812;28;19932;-75
2022/02/15 05:27:46;;;;;;;;;;;6.20;99.90;;;;;;8410710;28;20291;-74
2022/02/15 05:31:49;;;;;;;;;;;6.30;99.90;;;;;;8407716;28;19932;-75
2022/02/15 05:35:50;;;;;;;;;;;6.30;99.90;;;;;;8391609;28;19936;-74
2022/02/15 05:39:52;;;;;;;;;;;6.30;99.90;;;;;;8409106;28;19960;-74
2022/02/15 05:43:55;;;;;;;;;;;6.30;99.90;;;;;;8409891;28;20398;-74
2022/02/15 05:47:57;;;;;;;;;;;6.30;99.90;;;;;;8386494;28;19977;-75
2022/02/15 05:51:59;;;;;;;;;;;6.30;99.90;;;;;;8386614;28;20383;-74
2022/02/15 05:56:02;;;;;;;;;;;6.30;99.90;;;;;;8408540;28;19982;-74
2022/02/15 06:00:06;;;;;;;;;;;6.40;99.90;;;;;;8401076;28;19924;-74
2022/02/15 06:04:11;;;;;;;;;;;6.40;99.90;;;;;;8389247;28;19962;-75
2022/02/15 06:08:12;;;;;;;;;;;6.40;99.90;;;;;;8401438;28;19924;-74
2022/02/15 06:12:14;;;;;;;;;;;6.40;99.90;;;;;;8402942;28;19935;-75
2022/02/15 06:16:15;;;;;;;;;;;6.40;99.90;;;;;;8401195;28;19924;-75
2022/02/15 06:20:17;;;;;;;;;;;6.40;99.90;;;;;;8388433;28;19940;-74
2022/02/15 06:24:20;;;;;;;;;;;6.50;99.90;;;;;;8413877;28;19924;-75
2022/02/15 06:28:34;;;;;;;;;;;6.40;99.90;;;;;;8381079;28;19931;-75
2022/02/15 06:32:36;;;;;;;;;;;6.40;99.90;;;;;;8411207;28;19924;-74
2022/02/15 06:36:38;;;;;;;;;;;6.40;99.90;;;;;;8413509;28;19935;-74
2022/02/15 06:40:40;;;;;;;;;;;6.40;99.90;;;;;;8409402;28;20403;-74
2022/02/15 06:44:42;;;;;;;;;;;6.40;99.90;;;;;;8412937;28;19951;-75
2022/02/15 06:48:43;;;;;;;;;;;6.50;99.90;;;;;;8410721;28;20256;-75
2022/02/15 06:52:45;;;;;;;;;;;6.50;99.90;;;;;;8408023;28;19947;-75
2022/02/15 06:57:07;;;;;;;;;;;6.50;99.90;;;;;;8404210;28;19924;-74
2022/02/15 07:01:09;;;;;;;;;;;6.40;99.90;;;;;;8404661;28;20287;-75
2022/02/15 07:05:11;;;;;;;;;;;6.40;99.90;;;;;;8409875;28;19925;-75
2022/02/15 07:09:12;;;;;;;;;;;6.40;99.90;;;;;;8410590;28;19924;-68
2022/02/15 07:13:14;;;;;;;;;;;6.30;99.90;;;;;;8387748;28;20275;-68
2022/02/15 07:17:16;;;;;;;;;;;6.30;99.90;;;;;;8395801;28;19924;-68
2022/02/15 07:21:17;;;;;;;;;;;6.20;99.90;;;;;;8417263;28;19925;-68
2022/02/15 07:25:19;;;;;;;;;;;6.10;99.90;;;;;;8409206;28;19940;-68
2022/02/15 07:29:21;;;;;;;;;;;6.00;99.90;;;;;;8415444;28;19928;-68
2022/02/15 07:33:23;;;;;;;;;;;5.90;99.90;;;;;;8403748;28;19924;-68
2022/02/15 07:37:25;;;;;;;;;;;5.90;99.90;;;;;;8411800;28;19931;-68
2022/02/15 07:41:28;;;;;;;;;;;5.90;99.90;;;;;;8391110;28;19931;-68
2022/02/15 07:45:30;;;;;;;;;;;6.00;99.90;;;;;;8392860;28;19924;-68
2022/02/15 07:49:32;;;;;;;;;;;6.10;99.90;;;;;;8406482;28;19928;-68
2022/02/15 07:53:33;;;;;;;;;;;6.20;99.90;;;;;;8409045;28;20332;-68
2022/02/15 07:57:35;;;;;;;;;;;6.20;99.90;;;;;;8416063;28;19932;-68
2022/02/15 08:01:37;;;;;;;;;;;6.40;99.90;;;;;;8386865;28;19926;-68
2022/02/15 08:05:41;;;;;;;;;;;6.50;99.90;;;;;;8410764;28;19928;-68
2022/02/15 08:09:42;;;;;;;;;;;6.60;99.90;;;;;;8391553;28;19924;-68
2022/02/15 08:13:44;;;;;;;;;;;6.60;99.90;;;;;;8399451;28;19932;-68
2022/02/15 08:17:46;;;;;;;;;;;6.70;99.90;;;;;;8406528;28;19924;-68
2022/02/15 08:21:47;;;;;;;;;;;6.80;99.90;;;;;;8400569;28;19924;-68
2022/02/15 08:25:50;;;;;;;;;;;6.90;99.90;;;;;;8405309;28;20325;-68
2022/02/15 08:29:52;;;;;;;;;;;7.00;99.90;;;;;;8401182;28;20279;-68
2022/02/15 08:33:54;;;;;;;;;;;7.00;99.90;;;;;;8383945;28;19924;-68
2022/02/15 08:37:55;;;;;;;;;;;7.00;99.90;;;;;;8410660;28;20030;-68
2022/02/15 08:41:57;;;;;;;;;;;7.00;99.90;;;;;;8414741;28;19936;-68
2022/02/15 08:45:59;;;;;;;;;;;7.00;99.90;;;;;;8406849;28;19935;-68
2022/02/15 08:50:00;;;;;;;;;;;6.90;99.90;;;;;;8405929;28;19928;-68
2022/02/15 08:54:02;;;;;;;;;;;6.90;99.90;;;;;;8384346;28;20387;-68
2022/02/15 08:58:04;;;;;;;;;;;7.00;99.90;;;;;;8408062;28;19925;-68
2022/02/15 09:02:08;;;;;;;;;;;6.90;99.90;;;;;;8382430;28;20437;-68
2022/02/15 09:06:10;;;;;;;;;;;6.90;99.90;;;;;;8389044;28;20245;-68
2022/02/15 09:10:11;;;;;;;;;;;7.00;99.90;;;;;;8378172;28;19943;-68
2022/02/15 09:14:13;;;;;;;;;;;7.10;99.90;;;;;;8384629;28;19954;-68
2022/02/15 09:18:15;;;;;;;;;;;7.20;99.90;;;;;;8404044;28;19924;-68
2022/02/15 09:22:17;;;;;;;;;;;7.10;99.90;;;;;;8407128;28;19932;-68
2022/02/15 09:26:19;;;;;;;;;;;7.10;99.90;;;;;;8387374;28;20359;-68
2022/02/15 09:30:20;;;;;;;;;;;7.10;99.90;;;;;;8383733;28;19928;-68
2022/02/15 09:34:23;;;;;;;;;;;7.30;99.90;;;;;;8400592;28;20389;-68
2022/02/15 09:38:25;;;;;;;;;;;7.50;99.90;;;;;;8387521;28;19936;-68
2022/02/15 09:42:27;;;;;;;;;;;7.70;99.90;;;;;;8403328;28;19931;-68
2022/02/15 09:46:29;;;;;;;;;;;7.90;99.90;;;;;;8403699;28;19932;-68
2022/02/15 09:50:32;;;;;;;;;;;8.00;99.90;;;;;;8384868;28;19928;-68
2022/02/15 09:54:35;;;;;;;;;;;7.80;99.90;;;;;;8415961;28;19924;-68
2022/02/15 09:58:36;;;;;;;;;;;7.90;99.90;;;;;;8409712;28;19924;-68
2022/02/15 10:02:39;;;;;;;;;;;8.20;99.90;;;;;;8386711;28;19931;-68
2022/02/15 10:06:42;;;;;;;;;;;8.60;99.90;;;;;;8398385;28;19924;-68
2022/02/15 10:10:43;;;;;;;;;;;8.80;99.90;;;;;;8403518;28;19932;-68
2022/02/15 10:14:46;;;;;;;;;;;9.00;99.90;;;;;;8408034;28;19931;-68
2022/02/15 10:18:54;;;;;;;;;;;9.10;99.90;;;;;;8403601;28;19924;-68
2022/02/15 10:23:14;;;;;;;;;;;9.10;99.90;;;;;;8406786;28;21588;-68
2022/02/15 10:27:16;;;;;;;;;;;8.80;99.90;;;;;;8384603;28;19996;-68
2022/02/15 10:31:18;;;;;;;;;;;8.80;99.90;;;;;;8404539;28;19924;-68
2022/02/15 10:35:24;;;;;;;;;;;9.10;99.90;;;;;;8408517;28;19935;-68
2022/02/15 10:39:35;;;;;;;;;;;9.50;99.90;;;;;;8407050;28;20006;-68
2022/02/15 10:43:47;;;;;;;;;;;9.80;99.90;;;;;;8418055;28;19931;-68
2022/02/15 10:47:49;;;;;;;;;;;9.40;99.90;;;;;;8415376;28;19924;-68
2022/02/15 10:51:51;;;;;;;;;;;9.00;99.90;;;;;;8402033;28;19931;-68
2022/02/15 10:55:53;;;;;;;;;;;8.90;99.90;;;;;;8422155;28;19935;-68
2022/02/15 10:59:56;;;;;;;;;;;9.40;99.90;;;;;;8397559;28;19932;-68
2022/02/15 11:04:01;;;;;;;;;;;10.10;99.90;;;;;;8415536;28;19929;-68
2022/02/15 11:08:03;;;;;;;;;;;10.30;99.90;;;;;;8397255;28;20352;-68
2022/02/15 11:12:17;;;;;;;;;;;10.20;99.90;;;;;;8418473;28;20263;-68
2022/02/15 11:16:19;;;;;;;;;;;10.60;99.90;;;;;;8397274;28;20291;-68
2022/02/15 11:20:22;;;;;;;;;;;11.10;99.90;;;;;;8413149;28;19948;-68
2022/02/15 11:24:24;;;;;;;;;;;11.20;99.90;;;;;;8404147;28;19924;-68
2022/02/15 11:28:26;;;;;;;;;;;10.80;99.90;;;;;;8397328;28;19932;-68
2022/02/15 11:32:29;;;;;;;;;;;10.40;99.90;;;;;;8415363;28;19955;-68
2022/02/15 11:36:30;;;;;;;;;;;10.10;99.90;;;;;;8398335;28;19950;-68
2022/02/15 11:40:34;;;;;;;;;;;9.90;99.90;;;;;;8401929;28;20012;-68
2022/02/15 11:44:36;;;;;;;;;;;10.00;99.90;;;;;;8400653;28;19932;-68
2022/02/15 11:48:39;;;;;;;;;;;10.40;99.90;;;;;;8390592;28;19939;-68
2022/02/15 11:52:42;;;;;;;;;;;10.60;99.90;;;;;;8411996;28;19924;-68
2022/02/15 11:56:49;;;;;;;;;;;10.90;99.90;;;;;;8416903;28;19924;-68
2022/02/15 12:00:51;;;;;;;;;;;11.20;99.90;;;;;;8394874;28;20562;-68
2022/02/15 12:04:54;;;;;;;;;;;11.50;99.90;;;;;;8417810;28;19986;-68
2022/02/15 12:08:56;;;;;;;;;;;11.30;99.90;;;;;;8411805;28;19924;-68
2022/02/15 12:12:58;;;;;;;;;;;10.90;99.90;;;;;;8392928;28;20291;-68
2022/02/15 12:17:00;;;;;;;;;;;10.50;99.90;;;;;;8407666;28;20370;-68
2022/02/15 12:21:02;;;;;;;;;;;10.20;99.90;;;;;;8411073;28;19935;-68
2022/02/15 12:25:04;;;;;;;;;;;10.40;99.90;;;;;;8405580;28;20299;-68
2022/02/15 12:29:06;;;;;;;;;;;10.80;99.90;;;;;;8403508;28;20340;-68
2022/02/15 12:33:08;;;;;;;;;;;10.70;99.90;;;;;;8383196;28;19935;-68
2022/02/15 12:37:15;;;;;;;;;;;10.70;99.90;;;;;;8406318;28;20311;-68
2022/02/15 12:41:18;;;;;;;;;;;10.90;99.90;;;;;;8403237;28;19932;-68
2022/02/15 12:45:20;;;;;;;;;;;11.00;99.90;;;;;;8387953;28;19928;-68
2022/02/15 12:49:23;;;;;;;;;;;11.00;99.90;;;;;;8402917;28;20000;-68
2022/02/15 12:53:24;;;;;;;;;;;10.80;99.90;;;;;;8409054;28;19941;-68
2022/02/15 12:57:27;;;;;;;;;;;10.50;99.90;;;;;;8404204;28;20295;-68
2022/02/15 13:01:29;;;;;;;;;;;10.30;99.90;;;;;;8379331;28;19947;-68
2022/02/15 13:05:32;;;;;;;;;;;10.30;99.90;;;;;;8404386;28;20260;-68
2022/02/15 13:09:33;;;;;;;;;;;10.40;99.90;;;;;;8407786;28;20032;-68
2022/02/15 13:13:36;;;;;;;;;;;10.70;99.90;;;;;;8384126;28;19970;-68
2022/02/15 13:17:43;;;;;;;;;;;11.00;99.90;;;;;;8413442;28;19940;-68
2022/02/15 13:21:46;;;;;;;;;;;10.80;99.90;;;;;;8408654;28;20295;-68
2022/02/15 13:25:49;;;;;;;;;;;10.50;99.90;;;;;;8406003;28;19925;-68
2022/02/15 13:29:50;;;;;;;;;;;10.40;99.90;;;;;;8402116;28;19932;-68
2022/02/15 13:33:52;;;;;;;;;;;10.20;99.90;;;;;;8392889;28;19935;-67
2022/02/15 13:37:57;;;;;;;;;;;10.10;99.90;;;;;;8409287;28;19932;-68
2022/02/15 13:41:58;;;;;;;;;;;9.90;99.90;;;;;;8405574;28;19933;-68
2022/02/15 13:46:02;;;;;;;;;;;9.80;99.90;;;;;;8406872;28;19924;-68
2022/02/15 13:50:04;;;;;;;;;;;9.70;99.90;;;;;;8411525;28;19966;-68
2022/02/15 13:54:07;;;;;;;;;;;9.70;99.90;;;;;;8387249;28;19924;-68
2022/02/15 13:58:09;;;;;;;;;;;9.90;99.90;;;;;;8405013;28;19970;-67
2022/02/15 14:02:11;;;;;;;;;;;9.90;99.90;;;;;;8398683;28;19924;-68
2022/02/15 14:06:13;;;;;;;;;;;9.90;99.90;;;;;;8389619;28;20346;-68
2022/02/15 14:10:14;;;;;;;;;;;9.90;99.90;;;;;;8385753;28;19925;-68
2022/02/15 14:14:16;;;;;;;;;;;9.90;99.90;;;;;;8385879;28;19947;-68
2022/02/15 14:18:18;;;;;;;;;;;9.80;99.90;;;;;;8409402;28;20403;-68
2022/02/15 14:22:19;;;;;;;;;;;9.80;99.90;;;;;;8398230;28;20387;-67
2022/02/15 14:26:23;;;;;;;;;;;9.80;99.90;;;;;;8404639;28;19951;-68
2022/02/15 14:30:25;;;;;;;;;;;9.80;99.90;;;;;;8386531;28;19931;-68
2022/02/15 14:34:27;;;;;;;;;;;9.80;99.90;;;;;;8405694;28;20257;-68
2022/02/15 14:38:28;;;;;;;;;;;9.70;99.90;;;;;;8400923;28;19925;-68
2022/02/15 14:42:31;;;;;;;;;;;9.60;99.90;;;;;;8404765;28;20391;-68
2022/02/15 14:46:33;;;;;;;;;;;9.60;99.90;;;;;;8407508;28;19932;-67
2022/02/15 14:50:47;;;;;;;;;;;9.60;99.90;;;;;;8403510;28;19932;-67
2022/02/15 14:54:48;;;;;;;;;;;9.50;99.90;;;;;;8386562;28;20265;-67
2022/02/15 14:58:59;;;;;;;;;;;9.50;99.90;;;;;;8408455;28;19924;-67
2022/02/15 15:03:10;;;;;;;;;;;9.40;99.90;;;;;;8405742;28;19932;-67
2022/02/15 15:07:12;;;;;;;;;;;9.40;99.90;;;;;;8404142;28;19925;-67
2022/02/15 15:11:13;;;;;;;;;;;9.30;99.90;;;;;;8407060;28;19924;-67
2022/02/15 15:15:15;;;;;;;;;;;9.30;99.90;;;;;;8406602;28;20312;-67
2022/02/15 15:19:17;;;;;;;;;;;9.20;99.90;;;;;;8406218;28;19924;-67
2022/02/15 15:23:19;;;;;;;;;;;9.10;99.90;;;;;;8387061;28;20462;-67
2022/02/15 15:27:21;;;;;;;;;;;9.00;99.90;;;;;;8410853;28;20398;-67
2022/02/15 15:31:23;;;;;;;;;;;8.80;99.90;;;;;;8388708;28;19924;-67
2022/02/15 15:35:24;;;;;;;;;;;8.80;99.90;;;;;;8412435;28;19936;-67
2022/02/15 15:39:27;;;;;;;;;;;8.80;99.90;;;;;;8419176;28;19928;-67
2022/02/15 15:43:28;;;;;;;;;;;8.70;99.90;;;;;;8391469;28;19986;-67
2022/02/15 15:47:30;;;;;;;;;;;8.70;99.90;;;;;;8416373;28;20300;-67
2022/02/15 15:51:32;;;;;;;;;;;8.60;99.90;;;;;;8394294;28;19924;-67
2022/02/15 15:55:33;;;;;;;;;;;8.60;99.90;;;;;;8384903;28;19971;-67
2022/02/15 15:59:35;;;;;;;;;;;8.60;99.90;;;;;;8409218;28;19944;-67
2022/02/15 16:03:52;;;;;;;;;;;8.60;99.90;;;;;;8410367;28;19933;-67
2022/02/15 16:07:57;;;;;;;;;;;8.50;99.90;;;;;;8391837;28;19928;-67
2022/02/15 16:11:58;;;;;;;;;;;8.40;99.90;;;;;;8386848;28;19928;-67
2022/02/15 16:16:00;;;;;;;;;;;8.40;99.90;;;;;;8409553;28;19931;-67
2022/02/15 16:20:03;;;;;;;;;;;8.30;99.90;;;;;;8407725;28;20394;-67
2022/02/15 16:24:05;;;;;;;;;;;8.20;99.90;;;;;;8416388;28;19928;-67
2022/02/15 16:28:06;;;;;;;;;;;8.20;99.90;;;;;;8414790;28;19928;-67
2022/02/15 16:32:13;;;;;;;;;;;8.10;99.90;;;;;;8409456;28;19935;-67
2022/02/15 16:36:15;;;;;;;;;;;8.10;99.90;;;;;;8403471;28;19932;-67
2022/02/15 16:40:17;;;;;;;;;;;8.10;99.90;;;;;;8401444;28;19925;-67
2022/02/15 16:44:18;;;;;;;;;;;8.00;99.90;;;;;;8407791;28;19924;-67
2022/02/15 16:48:20;;;;;;;;;;;8.00;99.90;;;;;;8404414;28;19928;-67
2022/02/15 16:52:24;;;;;;;;;;;7.90;99.90;;;;;;8409207;28;19924;-67
2022/02/15 16:56:27;;;;;;;;;;;7.90;99.90;;;;;;8382746;28;19932;-67
2022/02/15 17:00:30;;;;;;;;;;;7.80;99.90;;;;;;8402031;28;19939;-68
2022/02/15 17:04:32;;;;;;;;;;;7.80;99.90;;;;;;8410416;28;19925;-69
2022/02/15 17:08:33;;;;;;;;;;;7.80;99.90;;;;;;8410245;28;19928;-69
2022/02/15 17:12:37;;;;;;;;;;;7.80;99.90;;;;;;8410585;28;19924;-69
2022/02/15 17:16:39;;;;;;;;;;;7.80;99.90;;;;;;8413616;28;19924;-69
2022/02/15 17:20:43;;;;;;;;;;;7.80;99.90;;;;;;8413294;28;19924;-68
2022/02/15 17:24:45;;;;;;;;;;;7.70;99.90;;;;;;8412567;28;19932;-68
2022/02/15 17:28:47;;;;;;;;;;;7.70;99.90;;;;;;8407813;28;20124;-69
2022/02/15 17:33:04;;;;;;;;;;;7.60;99.90;;;;;;8413730;28;19943;-68
2022/02/15 17:37:05;;;;;;;;;;;7.60;99.90;;;;;;8400800;28;19928;-69
2022/02/15 17:41:07;;;;;;;;;;;7.60;99.90;;;;;;8407491;28;19928;-68
2022/02/15 17:45:10;;;;;;;;;;;7.60;99.90;;;;;;8408335;28;19925;-69
2022/02/15 17:49:12;;;;;;;;;;;7.50;99.90;;;;;;8408331;28;19978;-69
2022/02/15 17:53:13;;;;;;;;;;;7.50;99.90;;;;;;8396618;28;20470;-69
2022/02/15 17:57:15;;;;;;;;;;;7.50;99.90;;;;;;8404547;28;19928;-69
2022/02/15 18:01:17;;;;;;;;;;;7.50;99.90;;;;;;8404853;28;19924;-69
2022/02/15 18:05:21;;;;;;;;;;;7.50;99.90;;;;;;8385862;28;19925;-69
2022/02/15 18:09:25;;;;;;;;;;;7.50;99.90;;;;;;8402610;28;19931;-69
2022/02/15 18:13:28;;;;;;;;;;;7.50;99.90;;;;;;8392253;28;19924;-69
2022/02/15 18:17:36;;;;;;;;;;;7.50;99.90;;;;;;8385531;28;19925;-69
2022/02/15 18:21:38;;;;;;;;;;;7.50;99.90;;;;;;8399943;28;20379;-69
2022/02/15 18:25:40;;;;;;;;;;;7.50;99.90;;;;;;8405904;28;19931;-69
2022/02/15 18:29:49;;;;;;;;;;;7.50;99.90;;;;;;8398130;28;19968;-69
2022/02/15 18:34:07;;;;;;;;;;;7.50;99.90;;;;;;8331245;28;19933;-69
2022/02/15 18:38:09;;;;;;;;;;;7.50;99.90;;;;;;8329923;28;19971;-69
2022/02/15 18:42:11;;;;;;;;;;;7.50;99.90;;;;;;8331330;28;20408;-69
2022/02/15 18:46:12;;;;;;;;;;;7.50;99.90;;;;;;8331153;28;20293;-69
2022/02/15 18:50:14;;;;;;;;;;;7.50;99.90;;;;;;8324169;28;19925;-69
2022/02/15 18:54:21;;;;;;;;;;;7.50;99.90;;;;;;8338872;28;19972;-69
2022/02/15 18:58:23;;;;;;;;;;;7.50;99.90;;;;;;8342792;28;19932;-69
2022/02/15 19:02:26;;;;;;;;;;;7.50;99.90;;;;;;8340500;28;20063;-69
2022/02/15 19:06:29;;;;;;;;;;;7.50;99.90;;;;;;8342494;28;20316;-68
2022/02/15 19:10:30;;;;;;;;;;;7.50;99.90;;;;;;8365129;28;20372;-69
2022/02/15 19:14:33;;;;;;;;;;;7.50;99.90;;;;;;8395472;28;19933;-69
2022/02/15 19:18:34;;;;;;;;;;;7.50;99.90;;;;;;8416157;28;19931;-69
2022/02/15 19:22:40;;;;;;;;;;;7.50;99.90;;;;;;8392324;28;19924;-69
2022/02/15 19:26:43;;;;;;;;;;;7.50;99.90;;;;;;8406822;28;19924;-69
2022/02/15 19:30:46;;;;;;;;;;;7.50;99.90;;;;;;8408785;28;19924;-69
2022/02/15 19:34:47;;;;;;;;;;;7.50;99.90;;;;;;8414114;28;20351;-69
2022/02/15 19:38:49;;;;;;;;;;;7.50;99.90;;;;;;8410339;28;19928;-69
2022/02/15 19:42:51;;;;;;;;;;;7.50;99.90;;;;;;8389703;28;20039;-69
2022/02/15 19:46:55;;;;;;;;;;;7.50;99.90;;;;;;8413593;28;20011;-69
2022/02/15 19:50:58;;;;;;;;;;;7.60;99.90;;;;;;8409067;28;19977;-69
2022/02/15 19:55:00;;;;;;;;;;;7.60;99.90;;;;;;8386820;28;19924;-69
2022/02/15 19:59:26;;;;;;;;;;;7.60;99.90;;;;;;8404763;28;19972;-69
2022/02/15 20:03:28;;;;;;;;;;;7.60;99.90;;;;;;8389057;28;20383;-69
2022/02/15 20:07:29;;;;;;;;;;;7.60;99.90;;;;;;8389975;28;19931;-69
2022/02/15 20:11:31;;;;;;;;;;;7.60;99.90;;;;;;8388135;28;20402;-69
2022/02/15 20:15:33;;;;;;;;;;;7.60;99.90;;;;;;8405324;28;19924;-69
2022/02/15 20:19:39;;;;;;;;;;;7.60;99.90;;;;;;8405139;28;19951;-69
2022/02/15 20:23:41;;;;;;;;;;;7.70;99.90;;;;;;8400644;28;19924;-69
2022/02/15 20:27:44;;;;;;;;;;;7.70;99.90;;;;;;8409131;28;19924;-70
2022/02/15 20:32:10;;;;;;;;;;;7.70;99.90;;;;;;8406772;28;19947;-70
2022/02/15 20:36:13;;;;;;;;;;;7.70;99.90;;;;;;8406323;28;19943;-70
2022/02/15 20:40:15;;;;;;;;;;;7.80;99.90;;;;;;8409122;28;19932;-70
2022/02/15 20:44:17;;;;;;;;;;;7.80;99.90;;;;;;8408158;28;19932;-74
2022/02/15 20:48:20;;;;;;;;;;;7.80;99.90;;;;;;8393860;28;19933;-73
2022/02/15 20:52:23;;;;;;;;;;;7.80;99.90;;;;;;8415898;28;19947;-74
2022/02/15 20:56:25;;;;;;;;;;;7.90;99.90;;;;;;8415398;28;19943;-74
2022/02/15 21:00:27;;;;;;;;;;;7.90;99.90;;;;;;8382921;28;19940;-74
2022/02/15 21:04:28;;;;;;;;;;;7.90;99.90;;;;;;8407526;28;20043;-73
2022/02/15 21:08:36;;;;;;;;;;;7.90;99.90;;;;;;8407946;28;20304;-73
2022/02/15 21:12:38;;;;;;;;;;;8.00;99.90;;;;;;8411361;28;19935;-74
2022/02/15 21:16:39;;;;;;;;;;;8.00;99.90;;;;;;8387635;28;19942;-74
2022/02/15 21:20:42;;;;;;;;;;;8.00;99.90;;;;;;8387337;28;19940;-74
2022/02/15 21:24:43;;;;;;;;;;;8.00;99.90;;;;;;8385138;28;19927;-74
2022/02/15 21:28:45;;;;;;;;;;;8.00;99.90;;;;;;8416848;28;19928;-74
2022/02/15 21:32:47;;;;;;;;;;;8.00;99.90;;;;;;8410923;28;19981;-74
2022/02/15 21:36:48;;;;;;;;;;;8.00;99.90;;;;;;8405796;28;19928;-74
2022/02/15 21:40:50;;;;;;;;;;;8.00;99.90;;;;;;8382980;28;19932;-74
2022/02/15 21:44:52;;;;;;;;;;;8.00;99.90;;;;;;8410035;28;19924;-74
2022/02/15 21:49:09;;;;;;;;;;;8.00;99.90;;;;;;8387227;28;19925;-74
2022/02/15 21:53:10;;;;;;;;;;;8.00;99.90;;;;;;8389501;28;20256;-74
2022/02/15 21:57:12;;;;;;;;;;;8.10;99.90;;;;;;8406148;28;20383;-74
2022/02/15 22:01:17;;;;;;;;;;;8.10;99.90;;;;;;8404815;28;19925;-74
2022/02/15 22:05:19;;;;;;;;;;;8.10;99.90;;;;;;8386399;28;19924;-73
2022/02/15 22:09:20;;;;;;;;;;;8.10;99.90;;;;;;8403397;28;20376;-74
2022/02/15 22:13:22;;;;;;;;;;;8.10;99.90;;;;;;8403590;28;19936;-73
2022/02/15 22:17:44;;;;;;;;;;;8.10;99.90;;;;;;8407323;28;19970;-74
2022/02/15 22:21:45;;;;;;;;;;;8.10;99.90;;;;;;8403417;28;19928;-73
2022/02/15 22:25:47;;;;;;;;;;;8.10;99.90;;;;;;8387500;28;19932;-73
2022/02/15 22:29:48;;;;;;;;;;;8.10;99.90;;;;;;8383333;28;20272;-74
2022/02/15 22:33:50;;;;;;;;;;;8.20;99.90;;;;;;8410768;28;19931;-73
2022/02/15 22:37:52;;;;;;;;;;;8.20;99.90;;;;;;8386912;28;19924;-73
2022/02/15 22:42:18;;;;;;;;;;;8.20;99.90;;;;;;8406703;28;19936;-73
2022/02/15 22:46:20;;;;;;;;;;;8.20;99.90;;;;;;8404790;28;19924;-73
2022/02/15 22:50:22;;;;;;;;;;;8.20;99.90;;;;;;8405479;28;19924;-73
2022/02/15 22:54:23;;;;;;;;;;;8.20;99.90;;;;;;8402726;28;20253;-73
2022/02/15 22:58:28;;;;;;;;;;;8.30;99.90;;;;;;8405386;28;19931;-73
2022/02/15 23:02:29;;;;;;;;;;;8.20;99.90;;;;;;8385526;28;20271;-73
2022/02/15 23:19:32;;;;;;;;;;;8.30;99.90;;;;;;8398802;28;20260;-73
2022/02/15 23:23:34;;;;;;;;;;;8.30;99.90;;;;;;8399612;28;19935;-73
2022/02/15 23:27:35;;;;;;;;;;;8.30;99.90;;;;;;8399412;28;20275;-73
2022/02/15 23:31:37;;;;;;;;;;;8.30;99.90;;;;;;8400221;28;19969;-73
2022/02/15 23:35:39;;;;;;;;;;;8.30;99.90;;;;;;8405262;28;19932;-73
2022/02/15 23:39:40;;;;;;;;;;;8.30;99.90;;;;;;8406581;28;19931;-73
2022/02/15 23:43:42;;;;;;;;;;;8.30;99.90;;;;;;8402115;28;19924;-73
2022/02/15 23:47:44;;;;;;;;;;;8.30;99.90;;;;;;8396348;28;20376;-73
2022/02/15 23:51:46;;;;;;;;;;;8.30;99.90;;;;;;8414642;28;19929;-73
2022/02/15 23:55:47;;;;;;;;;;;8.30;99.90;;;;;;8401585;28;19928;-73
2022/02/15 23:59:49;;;;;;;;;;;8.30;99.90;;;;;;8402480;28;20390;-73
